Time;durP1;ratioP1;P1;durP2;ratioP2;P2;SDS_P1;SDS_P2;PMS_P1;PMS_P2;Temp;Humidity;BMP_temperature;BMP_pressure;BME280_temperature;BME280_humidity;BME280_pressure;Samples;Min_cycle;Max_cycle;Signal;HPM_P1;HPM_P2
2022/01/26 00:07:23;;;;;;;6.43;0.77;;;25.60;99.90;;;;;;5051485;28;20032;-67
2022/01/26 00:09:50;;;;;;;4.97;0.60;;;25.60;99.90;;;;;;5051623;28;20009;-67
2022/01/26 00:12:17;;;;;;;4.68;0.70;;;25.60;99.90;;;;;;5051136;28;20028;-66
2022/01/26 00:14:44;;;;;;;11.90;1.27;;;25.60;99.90;;;;;;5050545;28;20028;-66
2022/01/26 00:17:12;;;;;;;6.47;1.02;;;25.70;99.90;;;;;;5050785;28;20108;-67
2022/01/26 00:19:53;;;;;;;5.53;0.70;;;25.70;99.90;;;;;;5051148;28;20032;-67
2022/01/26 00:22:55;;;;;;;4.15;0.40;;;25.60;99.90;;;;;;5051630;28;20040;-68
2022/01/26 00:27:57;;;;;;;5.40;0.68;;;25.70;99.90;;;;;;5051159;28;20079;-67
2022/01/26 00:38:40;;;;;;;5.32;0.90;;;25.70;99.90;;;;;;5049820;28;20063;-67
2022/01/26 00:41:12;;;;;;;4.75;0.63;;;25.60;99.90;;;;;;5050754;28;20029;-67
2022/01/26 00:43:49;;;;;;;5.03;0.60;;;25.70;99.90;;;;;;5050677;28;20020;-68
2022/01/26 00:46:17;;;;;;;1.33;0.38;;;26.00;99.90;;;;;;5051217;28;20033;-68
2022/01/26 00:48:45;;;;;;;4.50;0.40;;;26.20;99.90;;;;;;5049946;28;20115;-67
2022/01/26 00:51:18;;;;;;;4.47;0.50;;;26.10;99.90;;;;;;5051089;28;20075;-67
2022/01/26 00:53:52;;;;;;;3.38;0.95;;;26.30;99.90;;;;;;5051064;28;20025;-67
2022/01/26 00:56:20;;;;;;;4.72;0.40;;;26.00;99.90;;;;;;5055092;28;20036;-67
2022/01/26 00:58:48;;;;;;;3.83;0.80;;;25.80;99.90;;;;;;5055303;28;20501;-67
2022/01/26 01:01:15;;;;;;;2.20;0.50;;;25.90;99.90;;;;;;5055998;28;20079;-65
2022/01/26 01:03:47;;;;;;;1.27;0.50;;;26.00;99.90;;;;;;5044738;28;20473;-65
2022/01/26 01:06:25;;;;;;;5.25;1.02;;;26.20;99.90;;;;;;5036802;28;20018;-65
2022/01/26 01:08:56;;;;;;;3.45;0.65;;;26.10;99.90;;;;;;5055493;28;20361;-66
2022/01/26 01:11:24;;;;;;;5.13;0.75;;;26.10;99.90;;;;;;5055462;28;20025;-67
2022/01/26 01:13:51;;;;;;;3.00;0.45;;;26.20;99.90;;;;;;5050872;28;20052;-67
2022/01/26 01:16:21;;;;;;;4.15;0.80;;;26.20;99.90;;;;;;5055669;28;20091;-67
2022/01/26 01:18:59;;;;;;;4.32;0.50;;;26.20;99.90;;;;;;5054522;28;20025;-67
2022/01/26 01:31:59;;;;;;;1.98;0.30;;;26.40;99.90;;;;;;5054605;28;20032;-67
2022/01/26 01:34:30;;;;;;;;;;;26.40;99.90;;;;;;5054411;28;20268;-67
2022/01/26 01:37:03;;;;;;;5.57;0.52;;;26.70;99.90;;;;;;5054968;28;19904;-67
2022/01/26 01:39:30;;;;;;;4.60;0.83;;;26.80;99.90;;;;;;5054715;28;20108;-67
2022/01/26 01:41:58;;;;;;;3.28;0.50;;;26.50;99.90;;;;;;5053140;28;20040;-68
2022/01/26 01:44:25;;;;;;;5.95;0.80;;;26.50;99.90;;;;;;5053909;28;20031;-68
2022/01/26 01:46:54;;;;;;;4.72;0.60;;;26.50;99.90;;;;;;5053285;28;20021;-68
2022/01/26 01:49:22;;;;;;;5.65;0.52;;;26.50;99.90;;;;;;5054398;28;20025;-67
2022/01/26 01:51:54;;;;;;;3.63;0.50;;;26.50;99.90;;;;;;5053353;28;20428;-67
2022/01/26 01:54:22;;;;;;;3.17;0.40;;;25.90;99.90;;;;;;5054168;28;20051;-67
2022/01/26 01:56:56;;;;;;;4.70;0.60;;;26.10;99.90;;;;;;5051820;28;20072;-68
2022/01/26 01:59:32;;;;;;;2.58;0.28;;;26.20;99.90;;;;;;5055332;28;20036;-65
2022/01/26 02:02:04;;;;;;;3.67;0.43;;;26.30;99.90;;;;;;5053903;28;20037;-66
2022/01/26 02:04:31;;;;;;;8.88;0.95;;;26.40;99.90;;;;;;5054422;28;20365;-65
2022/01/26 02:06:59;;;;;;;6.78;0.90;;;26.50;99.90;;;;;;5052889;28;20067;-68
2022/01/26 02:09:26;;;;;;;1.95;0.50;;;26.60;99.90;;;;;;5054955;28;20025;-66
2022/01/26 02:11:57;;;;;;;6.95;0.88;;;26.60;99.90;;;;;;5053745;28;20035;-66
2022/01/26 02:14:32;;;;;;;5.13;0.82;;;26.10;99.90;;;;;;5054929;28;20028;-66
2022/01/26 02:20:10;;;;;;;4.63;0.75;;;26.50;99.90;;;;;;5054726;28;20025;-66
2022/01/26 02:58:04;;;;;;;5.25;1.08;;;26.20;99.90;;;;;;5052994;28;20082;-67
2022/01/26 03:03:24;;;;;;;5.93;0.60;;;26.50;99.90;;;;;;5052919;28;20545;-68
2022/01/26 03:06:00;;;;;;;3.45;0.90;;;26.50;99.90;;;;;;5051475;28;20021;-66
2022/01/26 03:08:36;;;;;;;5.63;0.70;;;26.60;99.90;;;;;;5053017;28;20132;-65
2022/01/26 03:11:10;;;;;;;3.88;0.35;;;26.60;99.90;;;;;;5037364;28;20036;-65
2022/01/26 03:13:43;;;;;;;4.32;0.50;;;26.40;99.90;;;;;;5051468;28;20052;-65
2022/01/26 03:16:32;;;;;;;4.07;0.80;;;26.40;99.90;;;;;;5052916;28;20029;-65
2022/01/26 03:35:01;;;;;;;3.97;0.50;;;25.70;99.90;;;;;;5047269;28;20037;-65
2022/01/26 03:37:36;;;;;;;2.15;0.57;;;25.90;99.90;;;;;;5051461;28;20106;-65
2022/01/26 03:40:12;;;;;;;3.83;0.52;;;26.10;99.90;;;;;;5053321;28;20021;-68
2022/01/26 03:42:40;;;;;;;4.15;0.47;;;26.20;99.90;;;;;;5051911;28;20051;-67
2022/01/26 03:45:10;;;;;;;3.97;0.47;;;25.90;99.90;;;;;;5044016;28;20029;-67
2022/01/26 03:47:37;;;;;;;1.83;0.47;;;25.70;99.90;;;;;;5051436;28;20036;-66
2022/01/26 03:50:05;;;;;;;4.95;0.88;;;25.80;99.90;;;;;;5053762;28;20032;-67
2022/01/26 03:52:32;;;;;;;2.20;0.70;;;25.90;99.90;;;;;;5051963;28;20422;-66
2022/01/26 03:55:00;;;;;;;2.58;0.50;;;25.80;99.90;;;;;;5052068;28;20485;-66
2022/01/26 03:57:27;;;;;;;2.70;0.38;;;25.80;99.90;;;;;;5050923;28;20029;-66
2022/01/26 03:59:54;;;;;;;2.58;0.50;;;25.70;99.90;;;;;;5051753;28;20036;-66
2022/01/26 04:02:22;;;;;;;3.40;0.50;;;25.70;99.90;;;;;;5050697;28;20024;-66
2022/01/26 04:04:55;;;;;;;7.10;0.70;;;25.60;99.90;;;;;;5052537;28;20024;-66
2022/01/26 04:07:23;;;;;;;5.45;0.55;;;25.40;99.90;;;;;;5051662;28;20021;-66
2022/01/26 04:09:50;;;;;;;4.15;0.30;;;25.40;99.90;;;;;;5052753;28;20047;-66
2022/01/26 04:12:17;;;;;;;3.13;0.40;;;25.40;99.90;;;;;;5049506;28;20078;-66
2022/01/26 04:14:52;;;;;;;5.57;0.40;;;25.20;99.90;;;;;;5052824;28;20409;-66
2022/01/26 04:17:19;;;;;;;3.30;0.47;;;25.20;99.90;;;;;;5049359;28;20052;-66
2022/01/26 04:19:53;;;;;;;4.65;0.52;;;25.40;99.90;;;;;;5052578;28;20036;-66
2022/01/26 04:22:27;;;;;;;3.25;0.50;;;25.40;99.90;;;;;;5051501;28;20492;-66
2022/01/26 04:24:55;;;;;;;3.35;0.65;;;25.50;99.90;;;;;;5052445;28;20024;-66
2022/01/26 04:27:33;;;;;;;2.65;0.30;;;25.40;99.90;;;;;;5050206;28;20459;-66
2022/01/26 04:30:00;;;;;;;3.90;0.65;;;25.40;99.90;;;;;;5050727;28;20032;-67
2022/01/26 04:32:28;;;;;;;2.17;0.22;;;25.30;99.90;;;;;;5051291;28;20124;-66
2022/01/26 04:34:56;;;;;;;2.88;0.40;;;25.20;99.90;;;;;;5052331;28;20049;-66
2022/01/26 04:40:02;;;;;;;4.40;0.65;;;25.30;99.90;;;;;;5049232;28;20087;-66
2022/01/26 04:42:42;;;;;;;4.93;0.50;;;25.00;99.90;;;;;;5051548;28;20112;-66
2022/01/26 04:45:11;;;;;;;2.97;0.50;;;25.00;99.90;;;;;;5052352;28;20017;-67
2022/01/26 04:47:39;;;;;;;7.25;0.95;;;25.20;99.90;;;;;;5051160;28;20108;-66
2022/01/26 04:50:09;;;;;;;3.90;0.38;;;24.90;99.90;;;;;;5051133;28;20040;-67
2022/01/26 04:52:38;;;;;;;3.95;0.45;;;24.90;99.90;;;;;;5051438;28;20068;-67
2022/01/26 04:55:06;;;;;;;4.22;0.70;;;25.00;99.90;;;;;;5051422;28;20112;-66
2022/01/26 04:57:33;;;;;;;2.10;0.35;;;25.10;99.90;;;;;;5047983;28;20029;-67
2022/01/26 05:00:01;;;;;;;3.20;0.50;;;25.20;99.90;;;;;;5050429;28;20021;-66
2022/01/26 05:02:28;;;;;;;4.68;0.50;;;25.30;99.90;;;;;;5049200;28;20033;-66
2022/01/26 05:04:55;;;;;;;4.22;0.50;;;24.90;99.90;;;;;;5049077;28;20541;-66
2022/01/26 05:07:22;;;;;;;2.97;0.70;;;25.00;99.90;;;;;;5049171;28;20017;-66
2022/01/26 05:09:50;;;;;;;4.03;0.38;;;24.90;99.90;;;;;;5050529;28;20099;-66
2022/01/26 05:12:18;;;;;;;7.47;0.50;;;24.80;99.90;;;;;;5048304;28;20032;-66
2022/01/26 05:14:47;;;;;;;4.47;0.55;;;24.60;99.90;;;;;;5050749;28;20051;-66
2022/01/26 05:17:18;;;;;;;3.55;0.30;;;24.70;99.90;;;;;;5050065;28;20381;-66
2022/01/26 05:19:46;;;;;;;3.17;0.80;;;24.60;99.90;;;;;;5050121;28;20029;-66
2022/01/26 05:22:14;;;;;;;5.07;0.32;;;24.70;99.90;;;;;;5050885;28;20041;-66
2022/01/26 05:24:41;;;;;;;3.25;0.50;;;24.70;99.90;;;;;;5050827;28;20025;-66
2022/01/26 05:27:08;;;;;;;4.30;0.50;;;24.80;99.90;;;;;;5049809;28;20114;-66
2022/01/26 05:29:35;;;;;;;2.42;0.50;;;24.70;99.90;;;;;;5051833;28;20025;-66
2022/01/26 05:32:03;;;;;;;2.97;0.25;;;24.70;99.90;;;;;;5050444;28;20029;-66
2022/01/26 05:34:30;;;;;;;4.85;0.30;;;24.70;99.90;;;;;;5042841;28;20037;-67
2022/01/26 05:36:58;;;;;;;4.53;0.70;;;24.60;99.90;;;;;;5036707;28;20055;-66
2022/01/26 05:39:25;;;;;;;2.58;0.35;;;24.60;99.90;;;;;;5051904;28;20031;-66
2022/01/26 05:41:52;;;;;;;5.78;0.70;;;24.70;99.90;;;;;;5053258;28;20029;-67
2022/01/26 05:44:19;;;;;;;4.82;0.40;;;24.80;99.90;;;;;;5054700;28;20052;-66
2022/01/26 05:46:49;;;;;;;3.92;0.30;;;24.80;99.90;;;;;;5052413;28;20033;-66
2022/01/26 05:49:18;;;;;;;2.47;0.30;;;24.70;99.90;;;;;;5054243;28;20504;-66
2022/01/26 05:51:46;;;;;;;2.88;0.20;;;24.80;99.90;;;;;;5053390;28;20474;-66
2022/01/26 05:54:15;;;;;;;4.13;0.50;;;24.90;99.90;;;;;;5054178;28;20025;-66
2022/01/26 05:56:44;;;;;;;3.55;0.80;;;24.90;99.90;;;;;;5053370;28;20029;-66
2022/01/26 05:59:12;;;;;;;2.25;0.20;;;24.90;99.90;;;;;;5055058;28;20017;-67
2022/01/26 06:01:39;;;;;;;1.67;0.35;;;25.00;99.90;;;;;;5054194;28;20033;-66
2022/01/26 06:04:06;;;;;;;2.88;0.38;;;25.00;99.90;;;;;;5054940;28;20017;-66
2022/01/26 06:06:34;;;;;;;6.22;0.73;;;25.00;99.90;;;;;;5052365;28;20017;-66
2022/01/26 06:09:01;;;;;;;2.88;0.40;;;24.90;99.90;;;;;;5033300;28;20017;-67
2022/01/26 06:11:28;;;;;;;2.85;0.50;;;24.90;99.90;;;;;;5034739;28;20025;-66
2022/01/26 06:13:55;;;;;;;2.92;0.43;;;25.00;99.90;;;;;;5053438;28;20485;-66
2022/01/26 06:16:23;;;;;;;4.53;0.63;;;24.80;99.90;;;;;;5050369;28;20021;-66
2022/01/26 06:18:51;;;;;;;4.47;0.50;;;24.90;99.90;;;;;;5054735;28;20017;-66
2022/01/26 06:21:18;;;;;;;5.28;0.45;;;24.80;99.90;;;;;;5054589;28;20040;-66
2022/01/26 06:23:46;;;;;;;3.15;0.40;;;24.90;99.90;;;;;;5053654;28;20430;-66
2022/01/26 06:26:13;;;;;;;3.70;0.85;;;24.70;99.90;;;;;;5052627;28;20496;-66
2022/01/26 06:28:40;;;;;;;3.72;0.60;;;24.60;99.90;;;;;;5044809;28;20036;-66
2022/01/26 06:31:14;;;;;;;3.85;0.30;;;24.70;99.90;;;;;;5035592;28;20025;-66
2022/01/26 06:33:43;;;;;;;6.53;0.60;;;24.50;99.90;;;;;;5052492;28;20029;-66
2022/01/26 06:36:13;;;;;;;3.22;0.70;;;24.60;99.90;;;;;;5054031;28;20028;-66
2022/01/26 06:38:45;;;;;;;4.15;0.50;;;24.50;99.90;;;;;;5053429;28;20053;-66
2022/01/26 06:41:14;;;;;;;1.80;0.25;;;24.60;99.90;;;;;;5053323;28;20039;-67
2022/01/26 06:43:51;;;;;;;5.15;0.40;;;25.00;99.90;;;;;;5053174;28;20103;-67
2022/01/26 06:46:37;;;;;;;6.90;0.65;;;25.10;99.90;;;;;;5054094;28;20032;-67
2022/01/26 06:51:54;;;;;;;5.90;0.60;;;25.10;99.90;;;;;;5043529;28;20386;-66
2022/01/26 06:54:22;;;;;;;4.82;0.60;;;25.40;99.90;;;;;;5053963;28;20022;-66
2022/01/26 06:56:50;;;;;;;3.70;0.43;;;25.00;99.90;;;;;;5052968;28;20029;-66
2022/01/26 06:59:17;;;;;;;4.18;0.90;;;24.70;99.90;;;;;;5052714;28;20351;-66
2022/01/26 07:01:44;;;;;;;3.00;0.80;;;24.50;99.90;;;;;;5052834;28;20413;-66
2022/01/26 07:04:12;;;;;;;4.30;0.70;;;24.40;99.90;;;;;;5053691;28;20485;-66
2022/01/26 07:06:39;;;;;;;6.82;0.73;;;24.40;99.90;;;;;;5052574;28;20496;-66
2022/01/26 07:09:06;;;;;;;4.32;0.75;;;24.50;99.90;;;;;;5053832;28;20039;-66
2022/01/26 07:11:34;;;;;;;3.75;0.68;;;25.60;99.90;;;;;;5052795;28;20061;-66
2022/01/26 07:14:03;;;;;;;1.77;0.30;;;25.80;99.90;;;;;;5033814;28;20032;-66
2022/01/26 07:22:01;;;;;;;7.03;0.65;;;24.40;99.90;;;;;;5042662;28;20044;-66
2022/01/26 07:24:28;;;;;;;2.83;0.47;;;24.20;99.90;;;;;;5042510;28;20588;-66
2022/01/26 07:26:56;;;;;;;4.82;0.35;;;24.20;99.90;;;;;;5052793;28;20127;-66
2022/01/26 07:29:23;;;;;;;3.15;0.63;;;24.10;99.90;;;;;;5052375;28;20029;-66
2022/01/26 07:31:52;;;;;;;1.95;0.70;;;24.50;99.90;;;;;;5051250;28;20031;-66
2022/01/26 07:34:22;;;;;;;6.03;0.70;;;25.10;99.90;;;;;;5052073;28;20056;-66
2022/01/26 07:36:52;;;;;;;8.10;1.20;;;25.50;99.90;;;;;;5051315;28;20107;-66
2022/01/26 07:39:30;;;;;;;5.35;1.20;;;25.10;99.90;;;;;;5052569;28;20032;-66
2022/01/26 07:41:58;;;;;;;6.18;0.88;;;25.30;99.90;;;;;;5050143;28;20025;-66
2022/01/26 07:44:26;;;;;;;5.90;1.30;;;25.30;99.90;;;;;;5052637;28;20032;-66
2022/01/26 07:46:53;;;;;;;3.17;0.75;;;25.10;99.90;;;;;;5051915;28;20025;-66
2022/01/26 07:49:21;;;;;;;2.30;0.50;;;24.50;99.90;;;;;;5050839;28;20029;-66
2022/01/26 07:51:50;;;;;;;5.40;0.50;;;24.20;99.90;;;;;;5051990;28;20450;-66
2022/01/26 07:54:19;;;;;;;5.82;0.80;;;23.90;99.90;;;;;;5051409;28;20126;-66
2022/01/26 07:56:47;;;;;;;1.95;0.52;;;23.60;99.90;;;;;;5052177;28;20087;-66
2022/01/26 07:59:14;;;;;;;4.00;0.65;;;23.50;99.90;;;;;;5052791;28;20021;-66
2022/01/26 08:01:41;;;;;;;4.38;0.52;;;23.50;99.90;;;;;;5051895;28;20030;-66
2022/01/26 08:04:09;;;;;;;3.47;0.35;;;23.50;99.90;;;;;;5052729;28;20104;-66
2022/01/26 08:06:36;;;;;;;4.05;0.70;;;23.50;99.90;;;;;;5051421;28;20033;-66
2022/01/26 08:09:03;;;;;;;2.70;0.80;;;23.50;99.90;;;;;;5052620;28;20454;-66
2022/01/26 08:11:31;;;;;;;3.20;1.05;;;23.40;99.90;;;;;;5051358;28;20025;-66
2022/01/26 08:13:58;;;;;;;2.70;0.32;;;23.40;99.90;;;;;;5050138;28;20029;-66
2022/01/26 08:16:25;;;;;;;4.38;0.60;;;23.30;99.90;;;;;;5047477;28;20047;-66
2022/01/26 08:18:53;;;;;;;2.85;0.40;;;23.30;99.90;;;;;;5050526;28;20021;-66
2022/01/26 08:21:20;;;;;;;5.15;0.80;;;23.30;99.90;;;;;;5051639;28;20078;-66
2022/01/26 08:23:48;;;;;;;2.78;0.40;;;23.30;99.90;;;;;;5051152;28;20029;-66
2022/01/26 08:26:22;;;;;;;5.88;0.88;;;23.20;99.90;;;;;;5051902;28;20021;-66
2022/01/26 08:28:55;;;;;;;4.18;0.60;;;23.10;99.90;;;;;;5051072;28;20086;-66
2022/01/26 08:31:22;;;;;;;4.43;0.55;;;23.10;99.90;;;;;;5050565;28;20088;-66
2022/01/26 08:33:49;;;;;;;5.13;0.65;;;23.10;99.90;;;;;;5052752;28;20029;-66
2022/01/26 08:36:17;;;;;;;8.57;1.45;;;23.10;99.90;;;;;;5052491;28;20151;-66
2022/01/26 08:38:44;;;;;;;2.90;0.85;;;23.00;99.90;;;;;;5051518;28;20029;-66
2022/01/26 08:41:12;;;;;;;5.38;0.60;;;23.00;99.90;;;;;;5050296;28;20112;-66
2022/01/26 08:43:39;;;;;;;2.10;0.50;;;23.00;99.90;;;;;;5049613;28;20040;-66
2022/01/26 08:46:06;;;;;;;3.85;0.50;;;23.00;99.90;;;;;;5051601;28;20084;-66
2022/01/26 08:48:33;;;;;;;3.28;1.25;;;22.90;99.90;;;;;;5031233;28;20025;-66
2022/01/26 08:51:01;;;;;;;4.28;0.40;;;22.90;99.90;;;;;;5051228;28;20537;-66
2022/01/26 08:53:28;;;;;;;5.97;0.68;;;22.90;99.90;;;;;;5049747;28;20064;-66
2022/01/26 08:55:56;;;;;;;4.32;0.55;;;22.80;99.90;;;;;;5051647;28;20032;-66
2022/01/26 08:58:23;;;;;;;9.27;0.73;;;22.80;99.90;;;;;;5049305;28;20420;-66
2022/01/26 09:00:51;;;;;;;5.75;0.93;;;22.80;99.90;;;;;;5052006;28;20103;-66
2022/01/26 09:03:18;;;;;;;3.78;0.70;;;22.80;99.90;;;;;;5049858;28;20040;-66
2022/01/26 09:05:45;;;;;;;3.45;0.68;;;22.70;99.90;;;;;;5052220;28;20108;-66
2022/01/26 09:08:13;;;;;;;4.15;0.93;;;22.70;99.90;;;;;;5050666;28;20025;-66
2022/01/26 09:10:41;;;;;;;4.47;1.02;;;22.70;99.90;;;;;;5046781;28;20473;-66
2022/01/26 09:13:09;;;;;;;4.43;0.77;;;22.70;99.90;;;;;;5048929;28;20037;-66
2022/01/26 09:15:39;;;;;;;4.28;0.60;;;22.60;99.90;;;;;;5054309;28;20040;-66
2022/01/26 09:18:08;;;;;;;4.15;0.40;;;22.60;99.90;;;;;;5054955;28;20051;-66
2022/01/26 09:20:38;;;;;;;8.23;1.13;;;22.60;99.90;;;;;;5053535;28;20059;-67
2022/01/26 09:23:06;;;;;;;5.53;0.38;;;22.60;99.90;;;;;;5055031;28;20117;-66
2022/01/26 09:25:33;;;;;;;4.53;0.95;;;22.60;99.90;;;;;;5050866;28;20053;-66
2022/01/26 09:28:00;;;;;;;6.53;1.05;;;22.60;99.90;;;;;;5054607;28;20108;-66
2022/01/26 09:30:28;;;;;;;7.20;1.25;;;22.60;99.90;;;;;;5054440;28;20041;-67
2022/01/26 09:32:55;;;;;;;5.65;0.52;;;22.50;99.90;;;;;;5054421;28;20029;-66
2022/01/26 09:35:22;;;;;;;7.18;0.98;;;22.50;99.90;;;;;;5055106;28;20483;-67
2022/01/26 09:37:49;;;;;;;4.35;0.70;;;22.50;99.90;;;;;;5054346;28;20504;-67
2022/01/26 09:40:17;;;;;;;5.78;0.60;;;22.50;99.90;;;;;;5054480;28;20017;-67
2022/01/26 09:42:46;;;;;;;3.67;0.77;;;22.40;99.90;;;;;;5029688;28;20036;-66
2022/01/26 09:45:14;;;;;;;4.60;1.13;;;22.40;99.90;;;;;;5054779;28;20044;-66
2022/01/26 09:47:41;;;;;;;7.53;1.00;;;22.50;99.90;;;;;;5054107;28;20453;-66
2022/01/26 09:50:08;;;;;;;2.60;0.45;;;22.40;99.90;;;;;;5055188;28;20025;-67
2022/01/26 09:52:41;;;;;;;7.57;0.60;;;22.40;99.90;;;;;;5054256;28;20033;-67
2022/01/26 09:55:09;;;;;;;2.92;0.73;;;22.40;99.90;;;;;;5055450;28;20029;-67
2022/01/26 09:57:40;;;;;;;4.65;1.60;;;22.40;99.90;;;;;;5053995;28;20032;-67
2022/01/26 10:00:08;;;;;;;9.63;3.60;;;22.40;99.90;;;;;;5054832;28;20115;-67
2022/01/26 10:02:36;;;;;;;7.82;2.40;;;22.30;99.90;;;;;;5053512;28;20492;-66
2022/01/26 10:05:11;;;;;;;12.52;3.08;;;22.30;99.90;;;;;;5052898;28;20451;-66
2022/01/26 10:08:11;;;;;;;8.82;2.50;;;22.20;99.90;;;;;;5054050;28;20053;-66
2022/01/26 10:16:37;;;;;;;3.05;0.70;;;22.20;99.90;;;;;;5054025;28;20049;-66
2022/01/26 10:19:00;;;;;;;6.32;1.17;;;22.20;99.90;;;;;;5054517;28;20108;-67
2022/01/26 10:21:28;;;;;;;2.22;0.80;;;22.20;99.90;;;;;;5053812;28;20529;-66
2022/01/26 10:23:58;;;;;;;8.13;0.63;;;22.20;99.90;;;;;;5054768;28;20025;-66
2022/01/26 10:26:26;;;;;;;4.43;0.52;;;22.20;99.90;;;;;;5052403;28;20041;-66
2022/01/26 10:28:58;;;;;;;4.93;0.82;;;22.20;99.90;;;;;;5054202;28;20029;-67
2022/01/26 10:31:39;;;;;;;5.95;1.40;;;22.20;99.90;;;;;;5053090;28;20025;-66
2022/01/26 10:34:10;;;;;;;5.95;0.57;;;22.20;99.90;;;;;;5034792;28;20025;-66
2022/01/26 10:36:52;;;;;;;4.78;0.70;;;22.20;99.90;;;;;;5048606;28;20033;-67
2022/01/26 10:39:34;;;;;;;7.95;1.02;;;22.20;99.90;;;;;;5054079;28;20076;-67
2022/01/26 10:42:08;;;;;;;5.57;0.70;;;22.20;99.90;;;;;;5051911;28;20133;-66
2022/01/26 10:44:49;;;;;;;8.82;1.20;;;22.10;99.90;;;;;;5054084;28;20028;-66
2022/01/26 10:47:27;;;;;;;6.40;0.90;;;22.10;99.90;;;;;;5051989;28;20017;-66
2022/01/26 10:50:08;;;;;;;4.40;0.60;;;22.10;99.90;;;;;;5054041;28;20537;-67
2022/01/26 10:52:37;;;;;;;3.85;0.75;;;22.20;99.90;;;;;;5052935;28;20470;-66
2022/01/26 10:55:07;;;;;;;6.13;0.77;;;22.10;99.90;;;;;;5053946;28;20024;-66
2022/01/26 10:57:35;;;;;;;2.92;0.77;;;22.20;99.90;;;;;;5052794;28;20023;-67
2022/01/26 11:00:09;;;;;;;6.38;0.60;;;22.20;99.90;;;;;;5052363;28;20090;-66
2022/01/26 11:02:37;;;;;;;4.93;0.60;;;22.20;99.90;;;;;;5053909;28;20507;-67
2022/01/26 11:05:05;;;;;;;5.65;1.25;;;22.20;99.90;;;;;;5052810;28;20714;-67
2022/01/26 11:07:37;;;;;;;5.55;1.25;;;22.20;99.90;;;;;;5051852;28;20025;-66
2022/01/26 11:10:07;;;;;;;4.38;0.85;;;22.20;99.90;;;;;;5052804;28;20052;-67
2022/01/26 11:12:38;;;;;;;4.43;1.15;;;22.10;99.90;;;;;;5052662;28;20052;-66
2022/01/26 11:15:09;;;;;;;7.30;1.13;;;22.20;99.90;;;;;;5052964;28;20547;-66
2022/01/26 11:17:42;;;;;;;6.18;1.10;;;22.20;99.90;;;;;;5052502;28;20425;-66
2022/01/26 11:20:33;;;;;;;7.20;1.15;;;22.20;99.90;;;;;;5053745;28;20025;-66
2022/01/26 11:23:05;;;;;;;2.50;0.55;;;22.20;99.90;;;;;;5051168;28;20037;-66
2022/01/26 11:25:44;;;;;;;12.30;0.88;;;22.20;99.90;;;;;;5048527;28;20017;-66
2022/01/26 11:28:26;;;;;;;6.25;0.70;;;22.20;99.90;;;;;;5051400;28;20478;-66
2022/01/26 11:30:59;;;;;;;3.50;0.50;;;22.20;99.90;;;;;;5053372;28;20064;-66
2022/01/26 11:33:29;;;;;;;3.70;0.80;;;22.10;99.90;;;;;;5052200;28;20489;-66
2022/01/26 11:35:58;;;;;;;3.75;0.50;;;22.10;99.90;;;;;;5053105;28;20028;-66
2022/01/26 11:47:24;;;;;;;4.80;0.88;;;22.10;99.90;;;;;;5051677;28;20083;-66
2022/01/26 11:50:01;;;;;;;3.53;1.00;;;22.10;99.90;;;;;;5050984;28;20021;-66
2022/01/26 11:52:35;;;;;;;3.47;0.50;;;22.10;99.90;;;;;;5049323;28;20037;-66
2022/01/26 11:55:25;;;;;;;4.85;0.30;;;22.10;99.90;;;;;;5034775;28;20033;-66
2022/01/26 11:57:55;;;;;;;3.40;0.47;;;22.10;99.90;;;;;;5044465;28;20477;-66
2022/01/26 12:00:46;;;;;;;3.25;0.63;;;22.10;99.90;;;;;;5052802;28;20076;-66
2022/01/26 12:03:32;;;;;;;2.88;0.30;;;22.10;99.90;;;;;;5050256;28;20140;-66
2022/01/26 12:06:01;;;;;;;4.07;0.52;;;22.10;99.90;;;;;;5052765;28;20021;-66
2022/01/26 12:08:31;;;;;;;4.10;0.80;;;22.00;99.90;;;;;;5048081;28;20027;-66
2022/01/26 12:10:58;;;;;;;3.45;0.70;;;22.10;99.90;;;;;;5032665;28;20030;-66
2022/01/26 12:13:28;;;;;;;4.00;0.50;;;22.00;99.90;;;;;;5043547;28;20033;-66
2022/01/26 12:16:07;;;;;;;3.40;0.57;;;22.00;99.90;;;;;;5032629;28;20067;-66
2022/01/26 12:18:40;;;;;;;4.95;0.50;;;22.00;99.90;;;;;;5050101;28;20060;-66
2022/01/26 12:35:26;;;;;;;8.38;0.70;;;22.00;99.90;;;;;;5052156;28;20049;-66
2022/01/26 12:38:00;;;;;;;5.40;0.60;;;21.90;99.90;;;;;;5049757;28;20029;-66
2022/01/26 12:43:47;;;;;;;4.43;0.57;;;21.80;99.90;;;;;;5017721;28;20057;-66
2022/01/26 12:46:18;;;;;;;4.00;0.68;;;21.90;99.90;;;;;;5051846;28;20324;-66
2022/01/26 12:49:15;;;;;;;3.90;0.70;;;22.00;99.90;;;;;;5038500;28;20021;-66
2022/01/26 12:51:46;;;;;;;3.42;0.57;;;22.00;99.90;;;;;;5054452;28;20868;-66
2022/01/26 12:54:14;;;;;;;8.30;0.90;;;22.00;99.90;;;;;;5056170;28;20025;-66
2022/01/26 12:56:42;;;;;;;3.35;0.40;;;22.10;99.90;;;;;;5055059;28;20104;-66
2022/01/26 12:59:16;;;;;;;4.75;0.40;;;22.10;99.90;;;;;;5055999;28;20511;-66
2022/01/26 13:01:47;;;;;;;5.13;0.63;;;22.00;99.90;;;;;;5055003;28;20045;-66
2022/01/26 13:04:18;;;;;;;3.70;0.60;;;22.10;99.90;;;;;;5056112;28;20036;-66
2022/01/26 13:06:54;;;;;;;6.68;0.98;;;22.10;99.90;;;;;;5054996;28;20040;-66
2022/01/26 13:09:25;;;;;;;8.10;0.77;;;22.00;99.90;;;;;;5056024;28;20040;-66
2022/01/26 13:11:54;;;;;;;4.63;0.50;;;22.00;99.90;;;;;;5055081;28;20042;-66
2022/01/26 13:14:30;;;;;;;3.58;0.30;;;22.00;99.90;;;;;;5056143;28;20024;-66
2022/01/26 13:17:18;;;;;;;5.65;0.73;;;22.10;99.90;;;;;;5054390;28;20028;-66
2022/01/26 13:28:00;;;;;;;4.75;0.47;;;22.10;99.90;;;;;;5054618;28;20049;-66
2022/01/26 13:30:41;;;;;;;3.75;0.30;;;22.10;99.90;;;;;;5053434;28;20033;-66
2022/01/26 13:33:43;;;;;;;6.38;0.90;;;22.10;99.90;;;;;;5049350;28;20029;-66
2022/01/26 13:36:25;;;;;;;4.22;0.57;;;22.10;99.90;;;;;;5052814;28;20029;-66
2022/01/26 13:55:27;;;;;;;4.07;0.65;;;22.00;99.90;;;;;;5046032;28;20033;-66
2022/01/26 14:00:40;;;;;;;4.35;0.55;;;22.10;99.90;;;;;;5054020;28;20032;-66
2022/01/26 14:03:10;;;;;;;3.97;0.40;;;22.00;99.90;;;;;;5054416;28;20037;-66
2022/01/26 14:05:38;;;;;;;7.03;0.80;;;22.00;99.90;;;;;;5055218;28;20150;-66
2022/01/26 14:08:06;;;;;;;2.90;0.90;;;22.00;99.90;;;;;;5053917;28;20021;-66
2022/01/26 14:10:35;;;;;;;4.38;0.73;;;21.90;99.90;;;;;;5054995;28;20028;-66
2022/01/26 14:13:03;;;;;;;4.88;0.90;;;21.90;99.90;;;;;;5053891;28;20031;-66
2022/01/26 14:15:44;;;;;;;3.67;0.50;;;21.90;99.90;;;;;;5053276;28;20112;-66
2022/01/26 14:18:40;;;;;;;4.45;1.33;;;22.00;99.90;;;;;;5054176;28;20025;-66
2022/01/26 14:26:13;;;;;;;3.53;0.55;;;22.00;99.90;;;;;;5054207;28;20060;-66
2022/01/26 14:28:41;;;;;;;3.53;0.50;;;22.00;99.90;;;;;;5053651;28;20100;-66
2022/01/26 14:36:28;;;;;;;3.58;0.40;;;21.90;99.90;;;;;;5046734;28;20079;-66
2022/01/26 15:00:51;;;;;;;7.40;0.93;;;21.50;99.90;;;;;;5054030;28;20032;-66
2022/01/26 15:30:13;;;;;;;5.60;0.75;;;20.90;99.90;;;;;;5039101;28;20538;-66
2022/01/26 15:41:56;;;;;;;4.13;0.88;;;20.70;99.90;;;;;;5050984;28;20048;-66
2022/01/26 15:52:17;;;;;;;2.65;0.50;;;20.50;99.90;;;;;;5037278;28;20039;-66
2022/01/26 15:57:53;;;;;;;3.05;0.68;;;20.50;99.90;;;;;;5052170;28;20036;-66
2022/01/26 16:20:08;;;;;;;1.52;0.40;;;20.60;99.90;;;;;;5052864;28;20443;-66
2022/01/26 17:46:54;;;;;;;3.25;0.73;;;20.90;99.90;;;;;;5054311;28;20401;-66
2022/01/26 18:07:11;;;;;;;5.57;0.88;;;21.00;99.90;;;;;;5053736;28;20032;-66
2022/01/26 18:49:47;;;;;;;3.97;0.65;;;20.50;99.90;;;;;;5052910;28;20473;-66
2022/01/26 18:52:14;;;;;;;2.90;0.75;;;20.50;99.90;;;;;;5051891;28;20470;-66
2022/01/26 18:54:41;;;;;;;3.90;1.00;;;20.50;99.90;;;;;;5051889;28;20029;-66
2022/01/26 18:57:10;;;;;;;3.83;1.00;;;20.50;99.90;;;;;;5052231;28;20386;-66
2022/01/26 18:59:38;;;;;;;8.63;1.52;;;20.50;99.90;;;;;;5053761;28;20390;-66
2022/01/26 19:02:07;;;;;;;12.77;1.48;;;20.40;99.90;;;;;;5052901;28;20047;-66
2022/01/26 19:04:54;;;;;;;3.70;1.20;;;20.50;99.90;;;;;;5051940;28;20394;-66
2022/01/26 19:07:25;;;;;;;3.33;0.98;;;20.50;99.90;;;;;;5048989;28;20424;-66
2022/01/26 19:09:53;;;;;;;5.13;0.85;;;20.50;99.90;;;;;;5055039;28;20028;-66
2022/01/26 19:12:23;;;;;;;4.00;1.10;;;20.50;99.90;;;;;;5052973;28;20493;-66
2022/01/26 19:14:55;;;;;;;5.50;1.05;;;20.50;99.90;;;;;;5052931;28;20465;-66
2022/01/26 19:17:34;;;;;;;5.90;1.60;;;20.60;99.90;;;;;;5050750;28;20017;-66
2022/01/26 19:20:52;;;;;;;6.68;1.13;;;20.50;99.90;;;;;;5051923;28;20112;-66
2022/01/26 19:23:25;;;;;;;4.10;1.00;;;20.50;99.90;;;;;;5042798;28;20048;-66
2022/01/26 19:25:59;;;;;;;5.95;0.90;;;20.60;99.90;;;;;;5052430;28;20029;-66
2022/01/26 19:28:37;;;;;;;;;;;20.50;99.90;;;;;;5052947;28;20071;-66
2022/01/26 19:45:07;;;;;;;4.75;0.93;;;20.60;99.90;;;;;;5052930;28;20040;-66
2022/01/26 19:53:04;;;;;;;5.03;1.42;;;20.60;99.90;;;;;;5052092;28;20093;-66
2022/01/26 19:55:32;;;;;;;4.55;1.30;;;20.70;99.90;;;;;;5051015;28;20600;-66
2022/01/26 19:58:01;;;;;;;8.23;1.55;;;20.70;99.90;;;;;;5051414;28;20028;-66
2022/01/26 20:00:29;;;;;;;4.63;1.38;;;20.70;99.90;;;;;;5049448;28;20048;-65
2022/01/26 20:02:57;;;;;;;8.55;1.40;;;20.70;99.90;;;;;;5052539;28;20037;-66